Time;durP1;ratioP1;P1;durP2;ratioP2;P2;SDS_P1;SDS_P2;PMS_P1;PMS_P2;Temp;Humidity;BMP_temperature;BMP_pressure;BME280_temperature;BME280_humidity;BME280_pressure;Samples;Min_cycle;Max_cycle;Signal;HPM_P1;HPM_P2
2023/07/09 00:00:49;;;;;;;3.30;2.40;;;;;;;18.41;62.88;101941.31;5018163;28;20403;-73
2023/07/09 00:03:15;;;;;;;;;;;;;;;18.39;63.76;101938.09;5017156;28;20589;-74
2023/07/09 00:05:42;;;;;;;5.13;3.05;;;;;;;18.34;63.64;101940.09;5013295;28;20086;-73
2023/07/09 00:08:40;;;;;;;5.55;3.92;;;;;;;18.31;63.76;101938.78;5014223;28;20033;-72
2023/07/09 00:11:06;;;;;;;4.13;2.25;;;;;;;18.30;63.37;101939.88;5000555;28;20038;-72
2023/07/09 00:13:31;;;;;;;4.63;2.80;;;;;;;18.28;63.48;101948.28;4991351;28;21091;-73
2023/07/09 00:16:00;;;;;;;4.93;2.80;;;;;;;18.24;64.38;101949.97;5012029;28;20042;-72
2023/07/09 00:18:26;;;;;;;3.33;2.63;;;;;;;18.18;64.04;101940.28;5015826;28;20457;-71
2023/07/09 00:20:51;;;;;;;2.92;2.28;;;;;;;18.14;64.63;101952.81;4996759;28;20522;-74
2023/07/09 00:23:19;;;;;;;;;;;;;;;18.12;65.06;101943.38;5000853;28;20030;-71
2023/07/09 00:25:45;;;;;;;4.07;2.58;;;;;;;18.05;64.63;101943.72;4978682;28;19917;-71
2023/07/09 00:28:15;;;;;;;6.45;2.67;;;;;;;18.03;64.72;101943.22;4995737;28;20539;-70
2023/07/09 00:30:40;;;;;;;4.47;3.30;;;;;;;18.01;63.95;101942.69;5012322;28;20061;-73
2023/07/09 00:33:11;;;;;;;5.20;2.80;;;;;;;17.99;64.29;101953.00;5010786;28;20073;-72
2023/07/09 00:35:39;;;;;;;4.15;3.17;;;;;;;17.94;64.59;101953.06;5013460;28;20144;-71
2023/07/09 00:38:08;;;;;;;4.47;2.70;;;;;;;17.92;64.33;101950.66;4998737;28;20120;-71
2023/07/09 00:40:33;;;;;;;6.95;3.85;;;;;;;17.92;64.42;101963.41;4993038;28;20033;-72
2023/07/09 00:43:00;;;;;;;5.20;2.70;;;;;;;17.88;64.74;101948.78;4997055;28;20037;-71
2023/07/09 00:45:27;;;;;;;4.28;2.70;;;;;;;17.85;64.61;101952.91;5010415;28;20034;-71
2023/07/09 00:47:58;;;;;;;6.65;3.17;;;;;;;17.82;64.63;101958.09;5008770;28;20038;-71
2023/07/09 00:50:47;;;;;;;4.97;2.42;;;;;;;17.78;65.09;101954.34;4991883;28;20038;-72
2023/07/09 00:53:22;;;;;;;4.10;3.03;;;;;;;17.71;65.40;101950.09;5014457;28;20043;-72
2023/07/09 00:55:57;;;;;;;3.90;2.83;;;;;;;17.68;65.03;101945.22;5013786;28;20037;-71
2023/07/09 00:58:26;;;;;;;5.32;2.88;;;;;;;17.60;65.20;101948.53;4999598;28;20104;-71
2023/07/09 01:00:58;;;;;;;5.25;3.00;;;;;;;17.59;64.97;101952.34;4993508;28;20037;-70
2023/07/09 01:03:46;;;;;;;3.67;2.70;;;;;;;17.59;65.03;101940.72;5014350;28;20444;-70
2023/07/09 01:06:13;;;;;;;3.25;2.55;;;;;;;17.54;64.72;101952.41;4998610;28;20120;-74
2023/07/09 01:08:42;;;;;;;4.93;3.08;;;;;;;17.51;64.82;101950.28;5012099;28;20140;-72
2023/07/09 01:11:22;;;;;;;3.22;2.33;;;;;;;17.49;65.28;101944.34;5016244;28;20033;-73
2023/07/09 01:13:51;;;;;;;3.88;2.72;;;;;;;17.45;65.31;101935.16;5014085;28;20394;-73
2023/07/09 01:16:17;;;;;;;4.18;2.55;;;;;;;17.41;65.42;101939.56;5017249;28;20095;-71
2023/07/09 01:18:43;;;;;;;4.72;2.78;;;;;;;17.38;65.29;101934.69;4998957;28;20080;-72
2023/07/09 01:21:16;;;;;;;3.95;2.50;;;;;;;17.34;65.21;101930.94;5012613;28;20033;-72
2023/07/09 01:23:44;;;;;;;4.13;2.95;;;;;;;17.33;65.09;101937.44;4994930;28;20046;-71
2023/07/09 01:26:16;;;;;;;5.97;2.90;;;;;;;17.31;65.49;101935.03;4996473;28;20072;-70
2023/07/09 01:28:45;;;;;;;3.92;2.58;;;;;;;17.32;65.47;101933.13;5015342;28;20080;-73
2023/07/09 01:31:13;;;;;;;3.58;2.28;;;;;;;17.30;65.59;101938.03;4994823;28;20040;-74
2023/07/09 01:33:39;;;;;;;3.33;2.30;;;;;;;17.24;65.22;101933.75;5009006;28;20046;-72
2023/07/09 01:36:09;;;;;;;2.88;2.17;;;;;;;17.18;65.45;101941.13;5017510;28;20494;-72
2023/07/09 01:38:35;;;;;;;4.95;2.63;;;;;;;17.13;65.23;101939.25;5014479;28;20037;-72
2023/07/09 01:41:02;;;;;;;3.25;2.40;;;;;;;17.08;65.35;101947.44;5015077;28;20484;-72
2023/07/09 01:43:28;;;;;;;;;;;;;;;17.03;65.57;101943.97;4998793;28;20121;-72
2023/07/09 01:45:57;;;;;;;4.30;2.45;;;;;;;16.99;65.50;101948.31;5004588;28;19916;-73
2023/07/09 01:48:24;;;;;;;4.85;2.22;;;;;;;16.98;65.53;101944.00;4986388;28;20038;-73
2023/07/09 01:50:50;;;;;;;3.97;2.60;;;;;;;16.96;65.45;101943.47;4997977;28;20034;-72
2023/07/09 01:53:19;;;;;;;6.18;4.20;;;;;;;16.93;65.26;101942.13;5019488;23;20053;-75
2023/07/09 01:55:45;;;;;;;4.38;3.17;;;;;;;16.91;65.43;101941.63;5008908;28;20136;-78
2023/07/09 01:58:10;;;;;;;;;;;;;;;16.89;66.29;101949.22;5003207;28;20051;-77
2023/07/09 02:00:37;;;;;;;2.90;2.08;;;;;;;16.85;65.06;101940.84;5028992;28;19917;-79
2023/07/09 02:03:04;;;;;;;3.53;2.30;;;;;;;16.84;65.93;101947.34;5032584;28;20037;-79
2023/07/09 02:05:33;;;;;;;3.00;2.40;;;;;;;16.78;65.49;101944.97;5030514;28;20072;-76
2023/07/09 02:07:59;;;;;;;3.30;1.83;;;;;;;16.73;65.37;101940.41;5010513;28;20040;-78
2023/07/09 02:10:25;;;;;;;;;;;;;;;16.69;66.16;101933.09;5011292;28;20037;-79
2023/07/09 02:12:52;;;;;;;3.78;2.22;;;;;;;16.62;65.49;101938.84;5050261;28;20008;-79
2023/07/09 02:15:17;;;;;;;;;;;;;;;16.59;65.95;101934.78;5017330;28;20040;-77
2023/07/09 02:17:43;;;;;;;4.75;2.95;;;;;;;16.49;66.33;101929.44;5046323;28;19951;-80
2023/07/09 02:20:11;;;;;;;5.38;2.50;;;;;;;16.44;66.88;101929.47;5049532;28;20024;-79
2023/07/09 02:22:38;;;;;;;3.90;2.25;;;;;;;16.40;66.40;101922.22;5002501;28;20041;-77
2023/07/09 02:25:06;;;;;;;3.17;2.53;;;;;;;16.40;66.53;101925.72;5032348;28;20041;-79
2023/07/09 02:27:33;;;;;;;4.28;2.42;;;;;;;16.36;66.81;101927.38;5015248;28;20382;-79
2023/07/09 02:30:00;;;;;;;6.35;2.80;;;;;;;16.35;66.79;101933.88;5033442;28;20063;-77
2023/07/09 02:32:27;;;;;;;3.85;2.55;;;;;;;16.36;66.67;101938.19;5002831;28;20116;-78
2023/07/09 02:34:53;;;;;;;4.55;2.95;;;;;;;16.32;66.41;101939.81;5016890;28;20040;-79
2023/07/09 02:37:22;;;;;;;6.40;2.83;;;;;;;16.30;66.18;101939.28;5013848;28;20037;-79
2023/07/09 02:39:48;;;;;;;5.07;2.95;;;;;;;16.28;65.95;101933.38;5014484;28;20104;-76
2023/07/09 02:42:16;;;;;;;4.82;2.30;;;;;;;16.24;66.03;101941.22;5016584;28;20048;-77
2023/07/09 02:44:43;;;;;;;4.78;3.35;;;;;;;16.19;66.16;101945.81;4999821;28;20033;-76
2023/07/09 02:47:11;;;;;;;3.85;2.90;;;;;;;16.14;66.45;101940.47;5047690;28;20062;-78
2023/07/09 02:49:41;;;;;;;4.00;2.88;;;;;;;16.10;67.74;101932.91;5032166;28;20079;-77
2023/07/09 02:52:07;;;;;;;4.63;2.60;;;;;;;16.08;67.52;101937.78;5045475;28;20039;-77
2023/07/09 02:54:33;;;;;;;5.70;3.15;;;;;;;16.10;67.28;101942.91;5017906;28;20069;-79
2023/07/09 02:56:58;;;;;;;4.90;2.83;;;;;;;16.09;66.92;101936.69;5015139;28;20136;-77
2023/07/09 02:59:26;;;;;;;;;;;;;;;16.05;67.45;101935.66;5010611;28;20040;-77
2023/07/09 03:01:52;;;;;;;4.35;2.75;;;;;;;16.01;66.73;101936.47;5013459;28;19918;-77
2023/07/09 03:04:20;;;;;;;4.40;2.90;;;;;;;15.96;66.96;101931.88;5017531;28;20051;-77
2023/07/09 03:06:45;;;;;;;3.67;2.50;;;;;;;15.94;66.63;101942.16;5016776;28;20560;-78
2023/07/09 03:09:11;;;;;;;;;;;;;;;15.94;67.74;101947.56;4997557;28;20021;-77
2023/07/09 03:11:37;;;;;;;4.18;2.63;;;;;;;15.90;66.70;101943.78;5031420;28;19949;-77
2023/07/09 03:14:03;;;;;;;4.03;2.88;;;;;;;15.88;66.77;101945.16;5011448;28;20033;-79
2023/07/09 03:16:30;;;;;;;;;;;;;;;15.85;67.57;101935.72;5031826;28;20052;-78
2023/07/09 03:18:57;;;;;;;3.55;2.55;;;;;;;15.83;66.73;101937.88;5050088;28;19913;-77
2023/07/09 03:21:24;;;;;;;;;;;;;;;15.82;67.60;101938.97;5034395;28;20032;-77
2023/07/09 03:23:50;;;;;;;3.05;2.53;;;;;;;15.81;66.66;101943.56;5033447;28;20395;-77
2023/07/09 03:26:16;;;;;;;;;;;;;;;15.80;67.89;101935.75;5013378;28;20037;-77
2023/07/09 03:28:41;;;;;;;6.13;2.60;;;;;;;15.77;67.04;101941.66;5015344;28;19913;-78
2023/07/09 03:31:07;;;;;;;;;;;;;;;15.79;67.84;101947.63;5032788;28;20041;-77
2023/07/09 03:33:33;;;;;;;6.28;2.47;;;;;;;15.76;66.61;101950.88;5048590;28;19917;-78
2023/07/09 03:35:58;;;;;;;;;;;;;;;15.78;67.41;101959.50;5012538;28;20037;-78
2023/07/09 03:38:24;;;;;;;3.33;2.28;;;;;;;15.75;66.60;101951.94;5046512;28;20476;-77
2023/07/09 03:40:50;;;;;;;;;;;;;;;15.74;67.48;101961.16;5028234;28;20033;-76
2023/07/09 03:43:16;;;;;;;4.47;2.03;;;;;;;15.71;66.94;101967.06;5030082;28;19917;-78
2023/07/09 03:45:43;;;;;;;;;;;;;;;15.71;67.59;101962.47;5000308;28;20383;-76
2023/07/09 03:48:09;;;;;;;3.63;2.60;;;;;;;15.67;67.57;101955.22;5033569;28;19987;-78
2023/07/09 03:50:35;;;;;;;;;;;;;;;15.67;68.45;101961.44;5029098;28;20041;-78
2023/07/09 03:53:00;;;;;;;3.65;2.60;;;;;;;15.65;67.36;101963.59;5031514;28;19920;-80
2023/07/09 03:55:26;;;;;;;;;;;;;;;15.66;68.28;101962.50;5028788;28;20040;-79
2023/07/09 03:57:54;;;;;;;5.35;3.15;;;;;;;15.62;68.08;101961.44;5028542;28;19916;-75
2023/07/09 04:00:19;;;;;;;5.10;2.90;;;;;;;15.62;67.90;101961.44;5030220;28;20029;-76
2023/07/09 04:02:45;;;;;;;;;;;;;;;15.63;68.65;101956.84;5013523;28;20033;-78
2023/07/09 04:05:11;;;;;;;4.88;2.50;;;;;;;15.62;69.03;101957.94;5030015;28;20840;-77
2023/07/09 04:07:38;;;;;;;4.03;2.55;;;;;;;15.63;67.98;101964.94;4999299;28;20064;-76
2023/07/09 04:10:05;;;;;;;4.85;2.40;;;;;;;15.64;68.94;101959.25;5031757;28;20061;-77
2023/07/09 04:12:31;;;;;;;3.38;2.22;;;;;;;15.67;68.05;101957.94;5031391;28;20124;-76
2023/07/09 04:14:57;;;;;;;;;;;;;;;15.68;68.77;101965.75;5016344;28;20305;-79
2023/07/09 04:17:23;;;;;;;3.55;2.38;;;;;;;15.67;68.61;101956.03;5032319;28;19917;-78
2023/07/09 04:19:49;;;;;;;;;;;;;;;15.67;69.25;101960.63;5018399;28;20130;-79
2023/07/09 04:22:15;;;;;;;3.60;2.70;;;;;;;15.65;68.64;101966.31;5028241;28;19916;-78
2023/07/09 04:24:40;;;;;;;;;;;;;;;15.64;69.15;101961.16;5016282;28;20041;-76
2023/07/09 04:27:07;;;;;;;4.63;2.90;;;;;;;15.61;69.24;101957.09;5009824;28;20495;-76
2023/07/09 04:29:38;;;;;;;6.05;2.67;;;;;;;15.60;68.83;101970.88;5030188;28;20211;-77
2023/07/09 04:32:11;;;;;;;4.13;2.80;;;;;;;15.57;69.11;101956.81;5011951;28;20132;-77
2023/07/09 04:34:39;;;;;;;3.80;2.75;;;;;;;15.62;70.21;101963.34;5026394;28;20045;-77
2023/07/09 04:37:07;;;;;;;4.07;2.83;;;;;;;15.61;69.91;101959.78;5029700;28;20052;-75
2023/07/09 04:39:33;;;;;;;4.32;2.95;;;;;;;15.62;70.42;101957.94;5029583;28;20405;-77
2023/07/09 04:41:58;;;;;;;;;;;;;;;15.62;69.83;101958.72;5028833;28;20032;-76
2023/07/09 04:44:24;;;;;;;4.07;2.85;;;;;;;15.63;69.32;101963.03;5028065;28;19935;-79
2023/07/09 04:46:50;;;;;;;;;;;;;;;15.70;69.55;101962.75;5032078;28;20151;-77
2023/07/09 04:49:16;;;;;;;4.20;2.03;;;;;;;15.73;68.51;101959.53;5045260;28;19928;-77
2023/07/09 04:51:41;;;;;;;;;;;;;;;15.81;69.07;101958.97;5010989;28;20116;-77
2023/07/09 04:54:07;;;;;;;3.70;2.53;;;;;;;15.86;68.72;101950.84;5045356;28;20023;-77
2023/07/09 04:56:33;;;;;;;3.92;2.65;;;;;;;15.97;67.97;101965.09;5044498;28;20097;-77
2023/07/09 04:58:59;;;;;;;;;;;;;;;16.05;68.87;101959.97;5012576;28;20064;-76
2023/07/09 05:01:24;;;;;;;3.55;1.77;;;;;;;16.11;67.80;101948.03;5011096;28;20357;-78
2023/07/09 05:03:51;;;;;;;4.35;2.72;;;;;;;16.25;68.82;101960.94;5028196;28;20041;-76
2023/07/09 05:06:16;;;;;;;;;;;;;;;16.35;67.46;101955.50;5026362;28;20052;-78
2023/07/09 05:08:42;;;;;;;4.13;2.70;;;;;;;16.47;67.39;101958.66;5042841;28;19921;-77
2023/07/09 05:11:10;;;;;;;4.88;2.67;;;;;;;16.72;62.89;101962.31;5023136;28;20067;-78
2023/07/09 05:13:36;;;;;;;4.55;2.70;;;;;;;16.96;61.93;101965.13;5024474;28;20553;-79
2023/07/09 05:16:02;;;;;;;;;;;;;;;17.14;60.42;101965.25;5027559;28;20212;-76
2023/07/09 05:18:27;;;;;;;6.07;2.88;;;;;;;17.29;60.56;101975.13;5012524;28;20020;-77
2023/07/09 05:20:55;;;;;;;4.88;3.28;;;;;;;17.47;60.33;101970.88;5014872;28;20056;-77
2023/07/09 05:23:25;;;;;;;3.58;2.65;;;;;;;17.66;59.32;101973.69;5013281;28;20486;-74
2023/07/09 05:25:59;;;;;;;4.85;2.60;;;;;;;17.78;59.57;101974.13;5030149;28;20482;-77
2023/07/09 05:28:25;;;;;;;5.05;2.42;;;;;;;17.88;59.50;101965.91;5001227;28;20076;-77
2023/07/09 05:30:50;;;;;;;;;;;;;;;18.00;57.94;101968.16;5033033;28;20119;-79
2023/07/09 05:33:18;;;;;;;3.50;2.50;;;;;;;18.12;57.76;101968.56;5016974;28;20388;-76
2023/07/09 05:35:45;;;;;;;3.70;2.50;;;;;;;18.21;57.27;101966.81;5016424;28;20043;-77
2023/07/09 05:38:13;;;;;;;4.03;2.65;;;;;;;18.33;57.46;101971.00;5034281;28;20066;-79
2023/07/09 05:40:41;;;;;;;4.72;2.88;;;;;;;18.39;57.74;101959.00;5001959;28;20121;-76
2023/07/09 05:43:07;;;;;;;3.97;2.97;;;;;;;18.46;58.31;101964.88;5002594;28;20147;-78
2023/07/09 05:45:33;;;;;;;;;;;;;;;18.52;57.74;101964.50;5054339;28;20033;-79
2023/07/09 05:48:00;;;;;;;5.25;3.10;;;;;;;18.64;56.59;101965.97;5052261;28;20011;-76
2023/07/09 05:50:27;;;;;;;7.15;2.95;;;;;;;18.75;56.46;101959.31;5031037;28;20061;-77
2023/07/09 05:52:53;;;;;;;4.60;2.92;;;;;;;18.86;56.13;101962.69;5048061;28;20064;-77
2023/07/09 05:55:18;;;;;;;4.47;2.80;;;;;;;18.99;56.27;101973.59;5046772;28;20068;-76
2023/07/09 05:57:44;;;;;;;5.57;2.88;;;;;;;19.07;55.70;101963.97;5031587;28;20140;-78
2023/07/09 06:00:11;;;;;;;3.30;2.45;;;;;;;19.09;57.44;101959.81;5015835;28;20088;-78
2023/07/09 06:02:40;;;;;;;7.13;2.83;;;;;;;19.19;56.81;101968.94;5029586;28;20060;-78
2023/07/09 06:05:10;;;;;;;6.50;3.20;;;;;;;19.33;55.73;101962.41;5021349;28;20766;-77
2023/07/09 06:07:37;;;;;;;3.55;2.53;;;;;;;19.45;55.24;101958.41;5019360;28;20095;-76
2023/07/09 06:10:07;;;;;;;3.83;3.03;;;;;;;19.54;54.40;101957.41;5014436;28;20049;-76
2023/07/09 06:12:33;;;;;;;5.22;2.75;;;;;;;19.67;55.41;101955.84;5001967;28;20068;-78
2023/07/09 06:14:59;;;;;;;4.95;3.33;;;;;;;19.79;54.50;101958.88;5018768;28;20040;-77
2023/07/09 06:17:25;;;;;;;4.78;2.80;;;;;;;19.86;54.26;101962.00;5034076;28;20047;-79
2023/07/09 06:19:51;;;;;;;4.68;3.00;;;;;;;19.93;53.99;101963.50;5031660;28;20045;-74
2023/07/09 06:22:16;;;;;;;5.45;3.22;;;;;;;20.00;53.93;101953.81;5015465;28;20028;-76
2023/07/09 06:24:45;;;;;;;3.70;2.83;;;;;;;20.08;53.55;101955.03;5034516;28;20037;-78
2023/07/09 06:27:10;;;;;;;4.43;2.83;;;;;;;20.20;53.61;101952.59;5047964;28;20044;-80
2023/07/09 06:29:36;;;;;;;4.47;2.92;;;;;;;20.28;53.45;101962.75;5033585;28;20040;-77
2023/07/09 06:32:02;;;;;;;4.38;3.17;;;;;;;20.32;53.64;101960.19;5033699;28;20128;-76
2023/07/09 06:34:28;;;;;;;5.90;3.10;;;;;;;20.41;54.05;101970.06;5016786;28;20041;-78
2023/07/09 06:36:56;;;;;;;5.07;3.05;;;;;;;20.45;53.43;101965.63;5031992;28;20036;-77
2023/07/09 06:39:22;;;;;;;4.20;3.22;;;;;;;20.57;53.05;101967.03;5016179;28;20568;-78
2023/07/09 06:41:48;;;;;;;5.45;3.20;;;;;;;20.63;53.64;101972.03;5000615;28;20055;-78
2023/07/09 06:44:33;;;;;;;4.38;2.88;;;;;;;20.70;53.07;101971.63;5031115;28;20085;-77
2023/07/09 06:46:59;;;;;;;4.78;3.47;;;;;;;20.74;53.31;101972.63;5014211;28;20175;-76
2023/07/09 06:49:25;;;;;;;5.70;3.22;;;;;;;20.85;53.45;101973.16;5015783;28;20048;-77
2023/07/09 06:51:50;;;;;;;5.97;2.72;;;;;;;20.89;54.25;101972.25;5045938;28;20047;-77
2023/07/09 06:54:16;;;;;;;4.32;2.90;;;;;;;20.98;53.96;101978.56;5032171;28;20053;-78
2023/07/09 06:56:42;;;;;;;4.80;2.70;;;;;;;21.07;53.83;101975.91;5032888;28;20033;-79
2023/07/09 06:59:08;;;;;;;6.10;3.70;;;;;;;21.15;53.63;101977.06;5028415;28;20408;-78
2023/07/09 07:01:33;;;;;;;4.25;3.10;;;;;;;21.28;53.98;101965.31;5031316;28;20675;-78
2023/07/09 07:04:00;;;;;;;5.30;3.60;;;;;;;21.38;54.58;101975.94;5014707;28;20059;-79
2023/07/09 07:06:26;;;;;;;5.07;3.25;;;;;;;21.51;53.00;101975.06;5047154;28;20497;-77
2023/07/09 07:08:52;;;;;;;5.38;3.35;;;;;;;21.56;53.44;101968.66;5032195;28;20079;-77
2023/07/09 07:11:18;;;;;;;5.47;3.38;;;;;;;21.61;53.13;101962.25;5031480;28;20092;-78
2023/07/09 07:13:44;;;;;;;4.90;2.75;;;;;;;21.66;51.86;101964.84;5017152;28;20056;-78
2023/07/09 07:16:12;;;;;;;5.05;3.53;;;;;;;21.74;52.54;101961.34;5014951;28;20060;-77
2023/07/09 07:18:38;;;;;;;6.65;3.60;;;;;;;21.87;52.12;101960.41;4998799;28;20063;-77
2023/07/09 07:21:05;;;;;;;4.85;3.30;;;;;;;21.95;51.89;101962.41;5012375;28;20045;-75
2023/07/09 07:23:31;;;;;;;5.10;3.13;;;;;;;22.02;52.25;101962.72;5016251;28;20032;-78
2023/07/09 07:25:57;;;;;;;5.35;3.42;;;;;;;22.05;51.67;101953.91;5015401;28;20032;-77
2023/07/09 07:28:23;;;;;;;5.28;3.38;;;;;;;22.11;51.84;101964.69;4997558;28;20664;-78
2023/07/09 07:31:09;;;;;;;6.63;3.20;;;;;;;22.23;51.26;101964.88;4996542;28;20044;-75
2023/07/09 07:33:35;;;;;;;5.68;3.55;;;;;;;22.31;51.85;101961.34;5012781;28;20037;-78
2023/07/09 07:36:04;;;;;;;5.35;4.32;;;;;;;22.40;51.62;101964.88;5027965;28;20048;-77
2023/07/09 07:38:30;;;;;;;6.35;3.50;;;;;;;22.49;52.40;101968.44;5029537;28;20037;-78
2023/07/09 07:40:55;;;;;;;6.28;3.40;;;;;;;22.60;51.68;101963.44;5011609;28;20029;-76
2023/07/09 07:43:21;;;;;;;5.72;3.70;;;;;;;22.70;51.29;101968.59;5024990;28;20041;-75
2023/07/09 07:45:48;;;;;;;5.00;3.50;;;;;;;22.73;49.94;101964.41;5015438;28;20040;-79
2023/07/09 07:48:13;;;;;;;5.80;4.05;;;;;;;22.82;52.20;101957.00;5029129;28;20025;-75
2023/07/09 07:50:40;;;;;;;4.50;3.00;;;;;;;22.91;51.47;101952.38;5045342;28;20076;-78
2023/07/09 07:53:07;;;;;;;6.75;4.30;;;;;;;22.98;51.39;101960.09;5029553;28;20028;-78
2023/07/09 07:55:34;;;;;;;4.70;3.30;;;;;;;23.05;50.96;101955.72;5012995;28;20128;-78
2023/07/09 07:58:02;;;;;;;4.53;3.38;;;;;;;23.16;50.72;101965.16;5015427;28;20040;-77
2023/07/09 08:00:28;;;;;;;5.07;3.47;;;;;;;23.25;49.83;101962.44;5047323;28;20035;-76
2023/07/09 08:02:54;;;;;;;6.22;3.22;;;;;;;23.34;51.22;101959.66;5028630;28;20092;-78
2023/07/09 08:05:19;;;;;;;5.45;4.00;;;;;;;23.35;51.06;101953.88;5007765;28;20037;-77
2023/07/09 08:07:45;;;;;;;6.75;3.25;;;;;;;23.52;51.36;101963.94;5002903;28;20780;-76
2023/07/09 08:10:11;;;;;;;5.22;3.97;;;;;;;23.57;50.56;101958.31;5005349;28;20030;-78
2023/07/09 08:12:38;;;;;;;5.90;3.55;;;;;;;23.65;51.07;101957.50;4990241;28;20068;-78
2023/07/09 08:15:06;;;;;;;5.80;3.95;;;;;;;23.74;49.80;101959.38;4997583;28;20065;-78
2023/07/09 08:17:32;;;;;;;4.38;3.33;;;;;;;23.87;49.51;101953.66;4995599;28;20044;-74
2023/07/09 08:19:57;;;;;;;5.47;3.90;;;;;;;23.95;51.08;101955.56;5024985;28;20029;-77
2023/07/09 08:22:23;;;;;;;4.47;3.58;;;;;;;24.08;50.11;101956.44;5024485;28;20053;-79
2023/07/09 08:24:49;;;;;;;4.90;3.40;;;;;;;24.17;50.60;101962.66;5029138;28;20140;-79
2023/07/09 08:27:15;;;;;;;5.50;3.65;;;;;;;24.27;49.21;101955.19;5006895;28;20044;-79
2023/07/09 08:29:42;;;;;;;6.88;3.65;;;;;;;24.39;48.00;101958.03;5007062;28;20033;-73
2023/07/09 08:32:09;;;;;;;7.57;3.90;;;;;;;24.42;47.26;101952.69;5022561;28;20116;-78
2023/07/09 08:34:35;;;;;;;4.95;3.85;;;;;;;24.49;48.08;101943.94;4990109;28;20572;-76
2023/07/09 08:37:02;;;;;;;4.47;3.55;;;;;;;24.61;47.27;101952.22;4989050;28;20041;-78
2023/07/09 08:39:27;;;;;;;6.47;3.90;;;;;;;24.68;46.17;101947.00;4994087;28;20041;-79
2023/07/09 08:41:59;;;;;;;5.45;3.72;;;;;;;24.82;46.23;101957.66;4982084;28;20029;-77
2023/07/09 08:44:40;;;;;;;4.53;3.75;;;;;;;24.90;45.75;101951.28;5011279;28;20502;-77
2023/07/09 08:47:24;;;;;;;8.70;4.15;;;;;;;25.01;46.67;101940.72;5022899;28;20107;-76
2023/07/09 08:50:10;;;;;;;6.40;3.88;;;;;;;25.08;46.18;101945.66;5024533;28;20506;-76
2023/07/09 08:52:42;;;;;;;8.20;3.53;;;;;;;25.21;46.60;101939.88;5014939;28;20087;-75
2023/07/09 08:55:16;;;;;;;5.50;4.15;;;;;;;25.29;46.16;101938.16;5028792;28;20501;-78
2023/07/09 08:57:50;;;;;;;6.30;3.92;;;;;;;25.38;45.79;101940.78;5011134;28;20374;-78
2023/07/09 09:00:22;;;;;;;8.93;4.40;;;;;;;25.47;45.01;101936.81;5022155;28;20124;-77
2023/07/09 09:02:56;;;;;;;6.07;4.32;;;;;;;25.54;45.26;101936.25;5027819;28;20482;-77
2023/07/09 09:05:23;;;;;;;5.70;4.03;;;;;;;25.59;45.88;101938.75;4993375;28;20049;-77
2023/07/09 09:08:02;;;;;;;4.88;4.00;;;;;;;25.63;44.32;101936.91;5044699;28;20029;-77
2023/07/09 09:10:42;;;;;;;5.10;3.72;;;;;;;25.80;44.97;101933.16;5012378;28;20017;-78
2023/07/09 09:13:12;;;;;;;5.82;4.85;;;;;;;25.81;44.70;101929.28;4993803;28;20041;-76
2023/07/09 09:15:41;;;;;;;4.45;3.95;;;;;;;25.86;44.67;101926.28;5010753;28;20072;-78
2023/07/09 09:18:21;;;;;;;6.50;4.47;;;;;;;26.02;47.36;101934.63;5011696;28;20029;-76
2023/07/09 09:21:09;;;;;;;7.18;4.13;;;;;;;26.15;47.25;101933.47;5012367;28;20034;-77
2023/07/09 09:23:48;;;;;;;5.90;4.43;;;;;;;26.22;45.88;101939.16;5011347;28;20099;-77
2023/07/09 09:26:34;;;;;;;5.03;4.15;;;;;;;26.30;47.48;101932.72;5025147;28;20501;-75
2023/07/09 09:29:10;;;;;;;7.80;3.90;;;;;;;26.43;46.14;101932.72;5012017;28;20730;-77
2023/07/09 09:31:35;;;;;;;6.70;4.20;;;;;;;26.56;46.93;101931.53;4983145;28;20049;-77
2023/07/09 09:34:02;;;;;;;4.57;4.05;;;;;;;26.56;46.02;101921.34;5030286;28;20033;-76
2023/07/09 09:36:27;;;;;;;4.68;3.80;;;;;;;26.65;46.56;101921.97;4997603;28;20041;-76
2023/07/09 09:38:53;;;;;;;5.80;4.10;;;;;;;26.72;46.79;101915.09;5011198;28;20038;-77
2023/07/09 09:41:24;;;;;;;5.00;4.43;;;;;;;26.82;46.82;101912.59;5029085;28;20080;-77
2023/07/09 09:43:54;;;;;;;5.90;3.95;;;;;;;26.85;45.21;101922.13;5006638;28;20053;-75
2023/07/09 09:46:26;;;;;;;7.60;4.63;;;;;;;26.91;44.25;101910.50;4992938;28;20042;-76
2023/07/09 09:49:00;;;;;;;5.38;3.50;;;;;;;26.95;45.49;101919.63;5029157;28;20044;-76
2023/07/09 09:51:26;;;;;;;5.38;3.60;;;;;;;26.99;45.31;101911.47;4984296;28;20128;-77
2023/07/09 09:54:02;;;;;;;4.43;3.88;;;;;;;27.14;43.32;101910.72;5008273;28;20094;-78
2023/07/09 09:56:36;;;;;;;5.45;4.40;;;;;;;27.26;43.68;101920.84;5008443;28;20120;-77
2023/07/09 09:59:04;;;;;;;5.10;3.80;;;;;;;27.43;44.10;101920.50;5024748;28;20033;-78
2023/07/09 10:01:32;;;;;;;5.90;3.90;;;;;;;27.56;41.83;101914.88;5026317;28;20497;-76
2023/07/09 10:03:59;;;;;;;5.68;4.00;;;;;;;27.73;41.10;101920.81;4992382;28;20079;-79
2023/07/09 10:06:33;;;;;;;4.57;3.97;;;;;;;27.70;41.76;101920.72;5021990;28;20047;-78
2023/07/09 10:09:05;;;;;;;5.43;3.85;;;;;;;27.78;41.81;101916.22;4994124;28;20049;-77
2023/07/09 10:11:45;;;;;;;5.32;4.03;;;;;;;27.88;41.08;101918.38;4972830;28;20045;-77
2023/07/09 10:14:44;;;;;;;5.47;4.43;;;;;;;27.80;41.77;101909.19;5024486;28;20040;-78
2023/07/09 10:17:20;;;;;;;5.93;4.40;;;;;;;27.94;41.21;101916.97;5011382;28;20116;-78
2023/07/09 10:19:48;;;;;;;6.18;4.65;;;;;;;28.03;42.29;101912.81;5012429;28;20041;-76
2023/07/09 10:22:37;;;;;;;5.13;3.92;;;;;;;28.18;41.14;101913.13;5009761;28;20454;-77
2023/07/09 10:25:39;;;;;;;5.90;4.15;;;;;;;28.41;42.96;101913.25;4975071;28;20045;-75
2023/07/09 10:28:33;;;;;;;4.88;3.92;;;;;;;28.50;42.82;101917.38;5031917;28;20103;-76
2023/07/09 10:31:08;;;;;;;4.47;3.65;;;;;;;28.55;40.67;101913.53;5046402;28;20502;-77
2023/07/09 10:33:47;;;;;;;4.28;3.88;;;;;;;28.62;42.02;101918.38;4998398;28;20427;-79
2023/07/09 10:36:32;;;;;;;7.35;4.60;;;;;;;28.64;41.87;101918.78;4998566;28;20037;-77
2023/07/09 10:39:11;;;;;;;6.78;3.72;;;;;;;28.72;41.35;101915.84;5015635;28;20037;-77
2023/07/09 10:41:38;;;;;;;6.18;4.00;;;;;;;28.78;42.51;101908.84;5015016;28;20361;-79
2023/07/09 10:44:29;;;;;;;6.30;4.38;;;;;;;28.84;41.61;101909.34;5030950;28;20535;-79
2023/07/09 10:47:04;;;;;;;5.85;3.75;;;;;;;29.02;43.55;101904.97;5045544;28;20463;-77
2023/07/09 10:49:37;;;;;;;4.30;3.67;;;;;;;29.23;42.02;101903.72;5013922;28;20037;-77
2023/07/09 10:52:06;;;;;;;5.35;3.50;;;;;;;29.37;40.50;101898.44;4997406;28;20037;-79
2023/07/09 10:55:11;;;;;;;4.88;3.78;;;;;;;29.42;42.25;101895.38;5027683;28;20111;-78
2023/07/09 10:57:48;;;;;;;5.10;4.40;;;;;;;29.45;40.19;101891.84;5028410;28;20052;-78
2023/07/09 11:00:27;;;;;;;5.95;4.43;;;;;;;29.55;38.90;101894.03;5009724;28;20044;-77
2023/07/09 11:03:08;;;;;;;5.70;4.45;;;;;;;29.57;40.43;101890.88;5017659;28;20048;-78
2023/07/09 11:05:34;;;;;;;5.68;4.43;;;;;;;29.68;41.54;101899.34;4992549;28;20152;-78
2023/07/09 11:08:09;;;;;;;5.05;4.22;;;;;;;29.73;40.38;101893.47;5014665;28;20033;-79
2023/07/09 11:10:40;;;;;;;6.60;4.65;;;;;;;29.77;39.76;101895.13;4998310;28;20462;-76
2023/07/09 11:13:17;;;;;;;7.10;3.97;;;;;;;29.85;41.48;101893.25;5030044;28;20060;-75
2023/07/09 11:15:46;;;;;;;;;;;;;;;29.94;40.17;101893.75;5027952;28;20069;-75
2023/07/09 11:18:20;;;;;;;4.55;4.13;;;;;;;29.98;39.59;101891.84;5009850;28;20005;-76
2023/07/09 11:20:47;;;;;;;7.32;4.53;;;;;;;30.03;38.95;101887.97;5026857;28;20038;-78
2023/07/09 11:23:22;;;;;;;6.07;4.25;;;;;;;30.12;38.78;101889.28;5012869;28;20038;-77
2023/07/09 11:26:01;;;;;;;4.55;3.90;;;;;;;30.17;40.38;101891.72;4997123;28;20045;-75
2023/07/09 11:28:35;;;;;;;5.70;4.47;;;;;;;30.29;40.31;101887.94;5027336;28;20124;-77
2023/07/09 11:31:36;;;;;;;5.72;4.30;;;;;;;30.39;39.88;101875.41;4982558;28;20033;-78
2023/07/09 11:34:07;;;;;;;5.00;4.32;;;;;;;30.39;37.73;101880.91;5042186;28;20125;-75
2023/07/09 11:36:45;;;;;;;5.50;4.18;;;;;;;30.33;36.74;101874.13;5026896;28;20031;-78
2023/07/09 11:39:21;;;;;;;5.22;4.68;;;;;;;30.45;43.93;101865.59;5026980;28;20049;-76
2023/07/09 11:41:47;;;;;;;5.63;4.10;;;;;;;30.59;38.88;101868.50;5000692;28;20064;-76